WZZ735 LOWW-LIMC
Flight info
| Callsign | WZZ735 |
|---|---|
| Flight time | 1h 8m |
| Altitude | 34000 |
| Route | OSPEN DCT ABRUK DCT SETAL DCT DETSA/N0444F330 DCT RENTA/N0371F190 M984 EVRIP |
| Aircraft | A321/M-SDE3FGHIRWY/LB1 |
Departure
| Time | 2026-04-26 01:06 |
|---|---|
| Airport | Vienna International Airport (LOWW) |
Arrival
| Time | 2026-04-26 02:14 |
|---|---|
| Airport | Milan Malpensa International Airport (LIMC) |
| Time | Latitude | Longitude | Altitude | Speed | Heading |
|---|---|---|---|---|---|
| 2026-04-26 00:28 | 48.11868 | 16.56883 | 600 ft | 0 kts | 200° |
| 2026-04-26 00:56 | 48.11870 | 16.56885 | 600 ft | 3 kts | 200° |
| 2026-04-26 00:57 | 48.11895 | 16.56899 | 600 ft | 4 kts | 202° |
| 2026-04-26 00:57 | 48.11920 | 16.56914 | 599 ft | 4 kts | 198° |
| 2026-04-26 00:57 | 48.11945 | 16.56921 | 599 ft | 4 kts | 161° |
| 2026-04-26 00:57 | 48.11954 | 16.56913 | 599 ft | 0 kts | 111° |
| 2026-04-26 01:00 | 48.11953 | 16.56915 | 598 ft | 2 kts | 113° |
| 2026-04-26 01:00 | 48.11913 | 16.57047 | 600 ft | 16 kts | 118° |
| 2026-04-26 01:00 | 48.11861 | 16.57195 | 602 ft | 16 kts | 116° |
| 2026-04-26 01:01 | 48.11830 | 16.57294 | 603 ft | 16 kts | 115° |
| 2026-04-26 01:01 | 48.11813 | 16.57419 | 602 ft | 10 kts | 81° |
| 2026-04-26 01:01 | 48.11799 | 16.57473 | 602 ft | 8 kts | 143° |
| 2026-04-26 01:01 | 48.11716 | 16.57511 | 614 ft | 19 kts | 166° |
| 2026-04-26 01:02 | 48.11539 | 16.57583 | 612 ft | 34 kts | 163° |
| 2026-04-26 01:02 | 48.11304 | 16.57683 | 621 ft | 23 kts | 163° |
| 2026-04-26 01:02 | 48.11221 | 16.57655 | 620 ft | 11 kts | 208° |
| 2026-04-26 01:02 | 48.11150 | 16.57604 | 623 ft | 13 kts | 203° |
| 2026-04-26 01:03 | 48.11081 | 16.57646 | 621 ft | 12 kts | 146° |
| 2026-04-26 01:03 | 48.11023 | 16.57634 | 626 ft | 0 kts | 207° |
| 2026-04-26 01:04 | 48.11016 | 16.57629 | 623 ft | 2 kts | 206° |
| 2026-04-26 01:05 | 48.10956 | 16.57585 | 624 ft | 19 kts | 206° |
| 2026-04-26 01:05 | 48.10921 | 16.57521 | 625 ft | 6 kts | 287° |
| 2026-04-26 01:05 | 48.10954 | 16.57410 | 628 ft | 34 kts | 296° |
| 2026-04-26 01:05 | 48.11170 | 16.56756 | 634 ft | 103 kts | 296° |
| 2026-04-26 01:06 | 48.11568 | 16.55518 | 626 ft | 158 kts | 295° |
| 2026-04-26 01:06 | 48.12047 | 16.54039 | 1271 ft | 152 kts | 293° |
| 2026-04-26 01:06 | 48.12059 | 16.52442 | 1942 ft | 171 kts | 255° |
| 2026-04-26 01:06 | 48.11207 | 16.51024 | 2522 ft | 193 kts | 229° |
| 2026-04-26 01:07 | 48.10097 | 16.49710 | 2781 ft | 215 kts | 227° |
| 2026-04-26 01:07 | 48.08853 | 16.48282 | 2944 ft | 237 kts | 225° |
| 2026-04-26 01:07 | 48.07481 | 16.46699 | 3184 ft | 261 kts | 225° |
| 2026-04-26 01:07 | 48.06043 | 16.44951 | 3786 ft | 269 kts | 226° |
| 2026-04-26 01:08 | 48.04606 | 16.43138 | 4579 ft | 272 kts | 227° |
| 2026-04-26 01:08 | 48.03168 | 16.41289 | 4895 ft | 271 kts | 227° |
| 2026-04-26 01:08 | 48.01736 | 16.39430 | 5415 ft | 272 kts | 227° |
| 2026-04-26 01:08 | 48.00312 | 16.37575 | 6353 ft | 270 kts | 228° |
| 2026-04-26 01:09 | 47.98971 | 16.35638 | 7134 ft | 268 kts | 233° |
| 2026-04-26 01:09 | 47.97705 | 16.33584 | 7899 ft | 270 kts | 234° |
| 2026-04-26 01:09 | 47.96450 | 16.31489 | 8671 ft | 272 kts | 236° |
| 2026-04-26 01:09 | 47.95207 | 16.29397 | 9421 ft | 274 kts | 236° |
| 2026-04-26 01:10 | 47.93930 | 16.27247 | 10131 ft | 278 kts | 236° |
| 2026-04-26 01:10 | 47.92608 | 16.25019 | 10470 ft | 295 kts | 235° |
| 2026-04-26 01:10 | 47.91237 | 16.22723 | 11115 ft | 299 kts | 233° |
| 2026-04-26 01:10 | 47.89800 | 16.20323 | 11288 ft | 321 kts | 233° |
| 2026-04-26 01:11 | 47.88265 | 16.17760 | 11474 ft | 340 kts | 233° |
| 2026-04-26 01:11 | 47.86664 | 16.15105 | 11973 ft | 348 kts | 232° |
| 2026-04-26 01:11 | 47.85031 | 16.12413 | 12604 ft | 352 kts | 232° |
| 2026-04-26 01:11 | 47.83379 | 16.09698 | 13226 ft | 356 kts | 232° |
| 2026-04-26 01:12 | 47.81709 | 16.06950 | 13847 ft | 360 kts | 231° |
| 2026-04-26 01:12 | 47.80076 | 16.04117 | 14429 ft | 361 kts | 239° |
| 2026-04-26 01:12 | 47.78771 | 16.00943 | 15042 ft | 361 kts | 243° |
| 2026-04-26 01:12 | 47.77486 | 15.97716 | 15591 ft | 364 kts | 243° |
| 2026-04-26 01:13 | 47.76194 | 15.94462 | 16197 ft | 367 kts | 243° |
| 2026-04-26 01:13 | 47.74893 | 15.91186 | 16818 ft | 370 kts | 243° |
| 2026-04-26 01:13 | 47.73582 | 15.87881 | 17430 ft | 372 kts | 243° |
| 2026-04-26 01:13 | 47.72260 | 15.84551 | 18023 ft | 375 kts | 243° |
| 2026-04-26 01:14 | 47.70941 | 15.81235 | 18590 ft | 378 kts | 242° |
| 2026-04-26 01:14 | 47.69595 | 15.77862 | 19081 ft | 381 kts | 242° |
| 2026-04-26 01:14 | 47.68234 | 15.74458 | 19588 ft | 385 kts | 243° |
| 2026-04-26 01:14 | 47.66863 | 15.71030 | 20067 ft | 388 kts | 243° |
| 2026-04-26 01:15 | 47.65477 | 15.67571 | 20529 ft | 392 kts | 245° |
| 2026-04-26 01:15 | 47.64074 | 15.64074 | 21013 ft | 396 kts | 243° |
| 2026-04-26 01:15 | 47.62657 | 15.60547 | 21491 ft | 399 kts | 242° |
| 2026-04-26 01:15 | 47.61229 | 15.57002 | 22010 ft | 401 kts | 244° |
| 2026-04-26 01:16 | 47.59793 | 15.53432 | 22463 ft | 405 kts | 244° |
| 2026-04-26 01:16 | 47.58362 | 15.49876 | 22846 ft | 410 kts | 242° |
| 2026-04-26 01:16 | 47.56894 | 15.46235 | 23249 ft | 414 kts | 242° |
| 2026-04-26 01:16 | 47.55411 | 15.42562 | 23673 ft | 417 kts | 242° |
| 2026-04-26 01:17 | 47.53916 | 15.38866 | 24029 ft | 420 kts | 242° |
| 2026-04-26 01:17 | 47.52410 | 15.35151 | 24413 ft | 422 kts | 242° |
| 2026-04-26 01:17 | 47.50894 | 15.31420 | 24772 ft | 425 kts | 242° |
| 2026-04-26 01:17 | 47.49363 | 15.27666 | 25140 ft | 427 kts | 242° |
| 2026-04-26 01:18 | 47.47824 | 15.23898 | 25490 ft | 429 kts | 242° |
| 2026-04-26 01:18 | 47.46277 | 15.20105 | 25875 ft | 431 kts | 243° |
| 2026-04-26 01:18 | 47.44721 | 15.16293 | 26229 ft | 434 kts | 243° |
| 2026-04-26 01:18 | 47.43156 | 15.12468 | 26524 ft | 437 kts | 242° |
| 2026-04-26 01:19 | 47.41576 | 15.08619 | 26839 ft | 440 kts | 243° |
| 2026-04-26 01:19 | 47.39984 | 15.04747 | 27162 ft | 442 kts | 243° |
| 2026-04-26 01:19 | 47.38502 | 15.00772 | 27498 ft | 441 kts | 250° |
| 2026-04-26 01:19 | 47.37481 | 14.96522 | 27834 ft | 439 kts | 258° |
| 2026-04-26 01:20 | 47.36633 | 14.92191 | 28194 ft | 441 kts | 258° |
| 2026-04-26 01:20 | 47.35784 | 14.87895 | 28534 ft | 443 kts | 258° |
| 2026-04-26 01:20 | 47.34912 | 14.83517 | 28879 ft | 445 kts | 257° |
| 2026-04-26 01:20 | 47.34030 | 14.79124 | 29208 ft | 447 kts | 257° |
| 2026-04-26 01:21 | 47.33137 | 14.74718 | 29525 ft | 449 kts | 257° |
| 2026-04-26 01:21 | 47.32237 | 14.70293 | 29849 ft | 451 kts | 257° |
| 2026-04-26 01:21 | 47.31336 | 14.65848 | 30171 ft | 453 kts | 257° |
| 2026-04-26 01:21 | 47.30432 | 14.61387 | 30486 ft | 453 kts | 257° |
| 2026-04-26 01:22 | 47.29529 | 14.56942 | 30836 ft | 453 kts | 257° |
| 2026-04-26 01:22 | 47.28624 | 14.52499 | 31198 ft | 452 kts | 257° |
| 2026-04-26 01:22 | 47.27721 | 14.48074 | 31560 ft | 451 kts | 257° |
| 2026-04-26 01:22 | 47.26819 | 14.43654 | 31929 ft | 450 kts | 257° |
| 2026-04-26 01:23 | 47.25917 | 14.39243 | 32295 ft | 449 kts | 257° |
| 2026-04-26 01:23 | 47.25018 | 14.34855 | 32668 ft | 448 kts | 257° |
| 2026-04-26 01:23 | 47.24117 | 14.30477 | 33037 ft | 447 kts | 257° |
| 2026-04-26 01:23 | 47.23215 | 14.26111 | 33403 ft | 446 kts | 257° |
| 2026-04-26 01:24 | 47.22314 | 14.21755 | 33782 ft | 444 kts | 257° |
| 2026-04-26 01:24 | 47.21427 | 14.17471 | 34107 ft | 443 kts | 257° |
| 2026-04-26 01:24 | 47.20527 | 14.13135 | 34410 ft | 443 kts | 257° |
| 2026-04-26 01:24 | 47.19628 | 14.08806 | 34699 ft | 442 kts | 257° |
| 2026-04-26 01:25 | 47.18731 | 14.04496 | 34995 ft | 441 kts | 257° |
| 2026-04-26 01:25 | 47.17832 | 14.00195 | 35287 ft | 440 kts | 257° |
| 2026-04-26 01:25 | 47.16930 | 13.95910 | 35601 ft | 438 kts | 256° |
| 2026-04-26 01:25 | 47.16028 | 13.91633 | 35888 ft | 437 kts | 256° |
| 2026-04-26 01:26 | 47.15130 | 13.87373 | 36192 ft | 436 kts | 256° |
| 2026-04-26 01:26 | 47.14232 | 13.83119 | 36491 ft | 435 kts | 256° |
| 2026-04-26 01:26 | 47.13337 | 13.78877 | 36778 ft | 434 kts | 256° |
| 2026-04-26 01:26 | 47.12443 | 13.74646 | 37014 ft | 434 kts | 256° |
| 2026-04-26 01:27 | 47.11548 | 13.70418 | 37131 ft | 433 kts | 256° |
| 2026-04-26 01:27 | 47.10651 | 13.66204 | 37346 ft | 432 kts | 256° |
| 2026-04-26 01:27 | 47.09751 | 13.61989 | 37548 ft | 432 kts | 256° |
| 2026-04-26 01:27 | 47.08852 | 13.57784 | 37611 ft | 431 kts | 256° |
| 2026-04-26 01:28 | 47.07071 | 13.49461 | 37811 ft | 428 kts | 257° |
| 2026-04-26 01:28 | 47.06178 | 13.45296 | 38043 ft | 428 kts | 257° |
| 2026-04-26 01:28 | 47.05279 | 13.41118 | 38117 ft | 429 kts | 255° |
| 2026-04-26 01:29 | 47.03476 | 13.32787 | 38112 ft | 428 kts | 255° |
| 2026-04-26 01:29 | 47.01670 | 13.24469 | 37871 ft | 428 kts | 255° |
| 2026-04-26 01:30 | 47.00763 | 13.20303 | 37252 ft | 429 kts | 256° |
| 2026-04-26 01:30 | 46.99854 | 13.16128 | 36625 ft | 430 kts | 256° |
| 2026-04-26 01:30 | 46.98943 | 13.11954 | 36207 ft | 428 kts | 256° |
| 2026-04-26 01:30 | 46.98037 | 13.07809 | 36086 ft | 430 kts | 256° |
| 2026-04-26 01:31 | 46.96196 | 12.99398 | 36120 ft | 435 kts | 256° |
| 2026-04-26 01:31 | 46.94340 | 12.90968 | 36121 ft | 435 kts | 255° |
| 2026-04-26 01:32 | 46.92467 | 12.82542 | 36125 ft | 436 kts | 255° |
| 2026-04-26 01:32 | 46.90608 | 12.74172 | 36113 ft | 436 kts | 255° |
| 2026-04-26 01:33 | 46.88737 | 12.65736 | 36119 ft | 436 kts | 255° |
| 2026-04-26 01:33 | 46.86851 | 12.57290 | 36146 ft | 437 kts | 255° |
| 2026-04-26 01:34 | 46.84955 | 12.48857 | 36165 ft | 437 kts | 255° |
| 2026-04-26 01:34 | 46.83050 | 12.40434 | 36191 ft | 437 kts | 255° |
| 2026-04-26 01:35 | 46.81136 | 12.32010 | 36202 ft | 437 kts | 255° |
| 2026-04-26 01:35 | 46.78805 | 12.23859 | 36213 ft | 440 kts | 247° |
| 2026-04-26 01:36 | 46.76062 | 12.15863 | 36134 ft | 441 kts | 247° |
| 2026-04-26 01:37 | 46.71941 | 12.03871 | 36131 ft | 441 kts | 247° |
| 2026-04-26 01:37 | 46.69189 | 11.95883 | 36134 ft | 441 kts | 247° |
| 2026-04-26 01:38 | 46.66427 | 11.87904 | 36139 ft | 440 kts | 247° |
| 2026-04-26 01:38 | 46.63664 | 11.79946 | 36139 ft | 441 kts | 247° |
| 2026-04-26 01:39 | 46.60912 | 11.72034 | 36148 ft | 441 kts | 246° |
| 2026-04-26 01:39 | 46.58131 | 11.64088 | 36155 ft | 441 kts | 246° |
| 2026-04-26 01:40 | 46.55340 | 11.56129 | 36158 ft | 441 kts | 246° |
| 2026-04-26 01:40 | 46.52565 | 11.48198 | 36173 ft | 440 kts | 246° |
| 2026-04-26 01:41 | 46.49780 | 11.40283 | 36168 ft | 440 kts | 246° |
| 2026-04-26 01:41 | 46.46981 | 11.32381 | 36180 ft | 440 kts | 246° |
| 2026-04-26 01:42 | 46.44183 | 11.24496 | 36182 ft | 439 kts | 246° |
| 2026-04-26 01:42 | 46.41390 | 11.16627 | 36175 ft | 439 kts | 246° |
| 2026-04-26 01:43 | 46.38594 | 11.08761 | 36199 ft | 439 kts | 246° |
| 2026-04-26 01:43 | 46.35786 | 11.00897 | 36202 ft | 439 kts | 246° |
| 2026-04-26 01:44 | 46.32970 | 10.93044 | 36204 ft | 440 kts | 246° |
| 2026-04-26 01:44 | 46.30159 | 10.85244 | 36197 ft | 439 kts | 245° |
| 2026-04-26 01:45 | 46.27392 | 10.77371 | 35954 ft | 438 kts | 246° |
| 2026-04-26 01:45 | 46.26036 | 10.73437 | 35691 ft | 437 kts | 246° |
| 2026-04-26 01:45 | 46.24684 | 10.69505 | 35115 ft | 438 kts | 246° |
| 2026-04-26 01:45 | 46.23324 | 10.65557 | 34433 ft | 440 kts | 246° |
| 2026-04-26 01:46 | 46.21947 | 10.61583 | 33582 ft | 445 kts | 246° |
| 2026-04-26 01:46 | 46.20552 | 10.57588 | 32907 ft | 444 kts | 246° |
| 2026-04-26 01:46 | 46.19163 | 10.53636 | 32455 ft | 439 kts | 246° |
| 2026-04-26 01:46 | 46.17781 | 10.49720 | 31939 ft | 437 kts | 246° |
| 2026-04-26 01:47 | 46.16403 | 10.45833 | 31420 ft | 434 kts | 246° |
| 2026-04-26 01:47 | 46.14999 | 10.42065 | 31040 ft | 429 kts | 239° |
| 2026-04-26 01:47 | 46.13097 | 10.38780 | 30621 ft | 429 kts | 226° |
| 2026-04-26 01:47 | 46.10908 | 10.35864 | 30098 ft | 427 kts | 225° |
| 2026-04-26 01:48 | 46.08713 | 10.32995 | 29542 ft | 423 kts | 225° |
| 2026-04-26 01:48 | 46.06531 | 10.30172 | 29056 ft | 419 kts | 225° |
| 2026-04-26 01:48 | 46.04370 | 10.27384 | 28544 ft | 416 kts | 225° |
| 2026-04-26 01:48 | 46.02226 | 10.24617 | 28060 ft | 412 kts | 225° |
| 2026-04-26 01:49 | 46.00101 | 10.21868 | 27573 ft | 409 kts | 225° |
| 2026-04-26 01:49 | 45.98702 | 10.20057 | 27255 ft | 407 kts | 225° |
| 2026-04-26 01:49 | 45.95895 | 10.16425 | 26601 ft | 404 kts | 225° |
| 2026-04-26 01:49 | 45.94515 | 10.14639 | 26292 ft | 403 kts | 225° |
| 2026-04-26 01:50 | 45.91739 | 10.11044 | 25671 ft | 401 kts | 226° |
| 2026-04-26 01:50 | 45.90367 | 10.09270 | 25372 ft | 400 kts | 226° |
| 2026-04-26 01:50 | 45.88300 | 10.06603 | 24934 ft | 399 kts | 225° |
| 2026-04-26 01:50 | 45.86240 | 10.03951 | 24490 ft | 397 kts | 225° |
| 2026-04-26 01:51 | 45.83522 | 10.00454 | 23922 ft | 396 kts | 225° |
| 2026-04-26 01:51 | 45.81475 | 9.97823 | 23460 ft | 395 kts | 225° |
| 2026-04-26 01:51 | 45.80097 | 9.96051 | 23142 ft | 393 kts | 225° |
| 2026-04-26 01:51 | 45.78076 | 9.93457 | 22710 ft | 388 kts | 225° |
| 2026-04-26 01:52 | 45.76073 | 9.90896 | 22283 ft | 384 kts | 225° |
| 2026-04-26 01:52 | 45.74094 | 9.88366 | 21946 ft | 379 kts | 225° |
| 2026-04-26 01:52 | 45.72150 | 9.85877 | 21411 ft | 379 kts | 225° |
| 2026-04-26 01:52 | 45.70191 | 9.83369 | 20956 ft | 376 kts | 225° |
| 2026-04-26 01:53 | 45.68250 | 9.80889 | 20530 ft | 373 kts | 225° |
| 2026-04-26 01:53 | 45.66316 | 9.78420 | 20083 ft | 371 kts | 224° |
| 2026-04-26 01:53 | 45.64389 | 9.75964 | 19635 ft | 370 kts | 224° |
| 2026-04-26 01:53 | 45.62470 | 9.73520 | 19177 ft | 368 kts | 224° |
| 2026-04-26 01:54 | 45.60563 | 9.71088 | 18722 ft | 367 kts | 224° |
| 2026-04-26 01:54 | 45.58655 | 9.68661 | 18249 ft | 366 kts | 224° |
| 2026-04-26 01:54 | 45.56780 | 9.66278 | 17763 ft | 364 kts | 224° |
| 2026-04-26 01:54 | 45.54871 | 9.63857 | 17384 ft | 361 kts | 224° |
| 2026-04-26 01:55 | 45.53050 | 9.61554 | 16875 ft | 347 kts | 224° |
| 2026-04-26 01:55 | 45.51269 | 9.59304 | 16635 ft | 338 kts | 224° |
| 2026-04-26 01:55 | 45.49543 | 9.57123 | 16494 ft | 325 kts | 224° |
| 2026-04-26 01:55 | 45.47864 | 9.55004 | 16141 ft | 320 kts | 224° |
| 2026-04-26 01:56 | 45.46203 | 9.52908 | 15696 ft | 319 kts | 223° |
| 2026-04-26 01:56 | 45.44543 | 9.50814 | 15249 ft | 320 kts | 223° |
| 2026-04-26 01:56 | 45.42875 | 9.48711 | 14808 ft | 321 kts | 223° |
| 2026-04-26 01:56 | 45.41201 | 9.46599 | 14371 ft | 322 kts | 223° |
| 2026-04-26 01:57 | 45.39523 | 9.44488 | 13941 ft | 322 kts | 223° |
| 2026-04-26 01:57 | 45.37841 | 9.42370 | 13458 ft | 323 kts | 223° |
| 2026-04-26 01:57 | 45.36158 | 9.40250 | 12982 ft | 323 kts | 222° |
| 2026-04-26 01:57 | 45.34473 | 9.38129 | 12510 ft | 323 kts | 222° |
| 2026-04-26 01:58 | 45.32786 | 9.36013 | 12014 ft | 323 kts | 222° |
| 2026-04-26 01:58 | 45.31100 | 9.33901 | 11564 ft | 323 kts | 222° |
| 2026-04-26 01:58 | 45.29415 | 9.31792 | 11115 ft | 322 kts | 221° |
| 2026-04-26 01:58 | 45.27734 | 9.29689 | 10676 ft | 322 kts | 221° |
| 2026-04-26 01:59 | 45.26055 | 9.27592 | 10238 ft | 321 kts | 222° |
| 2026-04-26 01:59 | 45.24404 | 9.25526 | 9808 ft | 320 kts | 222° |
| 2026-04-26 01:59 | 45.22737 | 9.23444 | 9335 ft | 317 kts | 222° |
| 2026-04-26 01:59 | 45.21111 | 9.21416 | 8943 ft | 305 kts | 222° |
| 2026-04-26 02:00 | 45.19559 | 9.19483 | 8625 ft | 290 kts | 222° |
| 2026-04-26 02:00 | 45.18058 | 9.17617 | 8357 ft | 285 kts | 222° |
| 2026-04-26 02:00 | 45.16588 | 9.15790 | 8090 ft | 277 kts | 222° |
| 2026-04-26 02:00 | 45.15146 | 9.14001 | 7747 ft | 273 kts | 222° |
| 2026-04-26 02:01 | 45.13742 | 9.12257 | 7627 ft | 263 kts | 222° |
| 2026-04-26 02:01 | 45.12377 | 9.10563 | 7285 ft | 264 kts | 222° |
| 2026-04-26 02:01 | 45.10985 | 9.08837 | 6698 ft | 265 kts | 222° |
| 2026-04-26 02:01 | 45.09605 | 9.07127 | 6161 ft | 262 kts | 222° |
| 2026-04-26 02:02 | 45.08239 | 9.05432 | 5842 ft | 260 kts | 222° |
| 2026-04-26 02:02 | 45.06916 | 9.03703 | 5514 ft | 258 kts | 231° |
| 2026-04-26 02:02 | 45.06003 | 9.01553 | 5200 ft | 254 kts | 252° |
| 2026-04-26 02:02 | 45.05697 | 8.99132 | 4875 ft | 249 kts | 274° |
| 2026-04-26 02:03 | 45.06094 | 8.96804 | 4543 ft | 242 kts | 298° |
| 2026-04-26 02:03 | 45.07110 | 8.94985 | 4241 ft | 234 kts | 322° |
| 2026-04-26 02:03 | 45.08460 | 8.93841 | 4008 ft | 224 kts | 332° |
| 2026-04-26 02:03 | 45.09819 | 8.92804 | 4047 ft | 221 kts | 332° |
| 2026-04-26 02:04 | 45.11170 | 8.91767 | 4037 ft | 220 kts | 332° |
| 2026-04-26 02:04 | 45.12515 | 8.90731 | 4035 ft | 220 kts | 332° |
| 2026-04-26 02:04 | 45.13863 | 8.89689 | 4038 ft | 221 kts | 332° |
| 2026-04-26 02:04 | 45.15210 | 8.88645 | 4034 ft | 221 kts | 332° |
| 2026-04-26 02:05 | 45.16561 | 8.87596 | 4036 ft | 222 kts | 332° |
| 2026-04-26 02:05 | 45.17911 | 8.86548 | 4034 ft | 221 kts | 332° |
| 2026-04-26 02:05 | 45.19263 | 8.85499 | 4034 ft | 221 kts | 332° |
| 2026-04-26 02:05 | 45.20649 | 8.84549 | 4033 ft | 221 kts | 341° |
| 2026-04-26 02:06 | 45.22138 | 8.84038 | 4036 ft | 220 kts | 350° |
| 2026-04-26 02:06 | 45.23603 | 8.83645 | 4029 ft | 211 kts | 349° |
| 2026-04-26 02:06 | 45.25052 | 8.83285 | 4009 ft | 211 kts | 356° |
| 2026-04-26 02:06 | 45.26520 | 8.83219 | 4013 ft | 211 kts | 355° |
| 2026-04-26 02:07 | 45.27961 | 8.82950 | 4013 ft | 211 kts | 351° |
| 2026-04-26 02:07 | 45.29402 | 8.82577 | 4011 ft | 207 kts | 349° |
| 2026-04-26 02:07 | 45.30792 | 8.82198 | 4030 ft | 201 kts | 349° |
| 2026-04-26 02:07 | 45.32165 | 8.81823 | 4026 ft | 201 kts | 349° |
| 2026-04-26 02:08 | 45.33536 | 8.81448 | 4009 ft | 200 kts | 349° |
| 2026-04-26 02:08 | 45.34905 | 8.81074 | 4008 ft | 200 kts | 349° |
| 2026-04-26 02:08 | 45.36273 | 8.80700 | 4008 ft | 200 kts | 349° |
| 2026-04-26 02:08 | 45.37604 | 8.80336 | 4006 ft | 192 kts | 349° |
| 2026-04-26 02:09 | 45.38901 | 8.79981 | 3921 ft | 186 kts | 349° |
| 2026-04-26 02:09 | 45.40168 | 8.79634 | 3521 ft | 186 kts | 349° |
| 2026-04-26 02:09 | 45.41430 | 8.79289 | 3062 ft | 182 kts | 348° |
| 2026-04-26 02:09 | 45.42645 | 8.78956 | 3015 ft | 180 kts | 348° |
| 2026-04-26 02:10 | 45.43865 | 8.78621 | 3035 ft | 178 kts | 349° |
| 2026-04-26 02:10 | 45.45078 | 8.78289 | 3033 ft | 177 kts | 349° |
| 2026-04-26 02:10 | 45.46269 | 8.77962 | 3034 ft | 176 kts | 349° |
| 2026-04-26 02:10 | 45.47474 | 8.77631 | 3034 ft | 176 kts | 349° |
| 2026-04-26 02:11 | 45.48678 | 8.77300 | 3037 ft | 176 kts | 349° |
| 2026-04-26 02:11 | 45.49873 | 8.76972 | 2972 ft | 172 kts | 349° |
| 2026-04-26 02:11 | 45.51030 | 8.76654 | 2801 ft | 165 kts | 349° |
| 2026-04-26 02:11 | 45.52129 | 8.76352 | 2606 ft | 158 kts | 349° |
| 2026-04-26 02:12 | 45.53202 | 8.76057 | 2409 ft | 156 kts | 349° |
| 2026-04-26 02:12 | 45.54259 | 8.75766 | 2196 ft | 152 kts | 349° |
| 2026-04-26 02:12 | 45.55280 | 8.75485 | 2011 ft | 148 kts | 349° |
| 2026-04-26 02:12 | 45.56280 | 8.75210 | 1815 ft | 146 kts | 349° |
| 2026-04-26 02:13 | 45.57276 | 8.74935 | 1591 ft | 145 kts | 348° |
| 2026-04-26 02:13 | 45.58263 | 8.74667 | 1378 ft | 144 kts | 349° |
| 2026-04-26 02:13 | 45.59243 | 8.74397 | 1181 ft | 143 kts | 349° |
| 2026-04-26 02:13 | 45.60204 | 8.74131 | 1027 ft | 142 kts | 349° |
| 2026-04-26 02:14 | 45.61186 | 8.73862 | 858 ft | 142 kts | 349° |
| 2026-04-26 02:14 | 45.62141 | 8.73595 | 720 ft | 132 kts | 349° |
| 2026-04-26 02:14 | 45.62876 | 8.73391 | 731 ft | 74 kts | 349° |
| 2026-04-26 02:14 | 45.63145 | 8.73246 | 736 ft | 33 kts | 321° |
| 2026-04-26 02:15 | 45.63276 | 8.73035 | 741 ft | 27 kts | 307° |
| 2026-04-26 02:15 | 45.63378 | 8.72822 | 744 ft | 25 kts | 303° |
| 2026-04-26 02:15 | 45.63404 | 8.72626 | 747 ft | 19 kts | 267° |
| 2026-04-26 02:15 | 45.63380 | 8.72420 | 748 ft | 24 kts | 259° |
| 2026-04-26 02:16 | 45.63371 | 8.72347 | 746 ft | 0 kts | 259° |
| 2026-04-26 02:16 | 45.63370 | 8.72342 | 746 ft | 2 kts | 259° |
| 2026-04-26 02:16 | 45.63356 | 8.72239 | 745 ft | 19 kts | 259° |
| 2026-04-26 02:16 | 45.63329 | 8.72045 | 746 ft | 20 kts | 258° |
| 2026-04-26 02:17 | 45.63313 | 8.71942 | 745 ft | 10 kts | 257° |
| 2026-04-26 02:17 | 45.63298 | 8.71837 | 746 ft | 12 kts | 260° |
| 2026-04-26 02:17 | 45.63281 | 8.71693 | 748 ft | 16 kts | 255° |
| 2026-04-26 02:17 | 45.63221 | 8.71648 | 743 ft | 12 kts | 227° |
| 2026-04-26 02:18 | 45.63210 | 8.71624 | 745 ft | 0 kts | 241° |
| 2026-04-26 02:18 | 45.63206 | 8.71615 | 745 ft | 3 kts | 240° |
| 2026-04-26 02:18 | 45.63193 | 8.71575 | 744 ft | 4 kts | 248° |
| 2026-04-26 02:18 | 45.63185 | 8.71550 | 744 ft | 2 kts | 245° |
| 2026-04-26 02:19 | 45.63176 | 8.71521 | 745 ft | 5 kts | 248° |
| 2026-04-26 02:19 | 45.63173 | 8.71508 | 744 ft | 0 kts | 250° |
| 2026-04-26 02:19 | 45.63173 | 8.71507 | 744 ft | 0 kts | 250° |